Time;durP1;ratioP1;P1;durP2;ratioP2;P2;SDS_P1;SDS_P2;PMS_P1;PMS_P2;Temp;Humidity;BMP_temperature;BMP_pressure;BME280_temperature;BME280_humidity;BME280_pressure;Samples;Min_cycle;Max_cycle;Signal;HPM_P1;HPM_P2
2022/05/04 00:02:55;;;;;;;28.52;12.47;;;;;;;9.01;64.01;98956.20;2023610;88;20973;-61
2022/05/04 00:05:56;;;;;;;27.85;12.20;;;;;;;9.03;63.98;98960.52;2023956;88;21049;-61
2022/05/04 00:08:57;;;;;;;30.88;13.35;;;;;;;9.05;64.28;98967.80;2023800;87;21064;-61
2022/05/04 00:11:57;;;;;;;29.15;13.43;;;;;;;9.04;64.22;98964.36;2023729;88;21061;-61
2022/05/04 00:14:58;;;;;;;30.80;13.28;;;;;;;9.06;64.56;98970.81;2023420;87;21069;-61
2022/05/04 00:17:59;;;;;;;31.97;14.15;;;;;;;9.08;64.81;98975.48;2016561;88;21144;-61
2022/05/04 00:20:59;;;;;;;33.00;12.65;;;;;;;8.99;65.26;98985.98;1999269;89;21044;-61
2022/05/04 00:24:00;;;;;;;34.18;14.03;;;;;;;9.00;65.75;98992.91;2002322;89;21045;-62
2022/05/04 00:27:00;;;;;;;38.92;19.32;;;;;;;9.01;65.93;98994.13;1999137;89;21061;-61
2022/05/04 00:30:01;;;;;;;43.73;20.08;;;;;;;9.08;65.73;98988.58;2002445;89;21005;-61
2022/05/04 00:33:01;;;;;;;31.15;13.53;;;;;;;9.19;65.77;98990.17;1996038;89;21101;-62
2022/05/04 00:36:02;;;;;;;30.80;13.05;;;;;;;9.33;66.40;98993.38;2003800;89;21588;-61
2022/05/04 00:39:02;;;;;;;30.25;13.58;;;;;;;9.22;65.80;98987.86;2001166;89;21741;-61
2022/05/04 00:42:05;;;;;;;30.08;13.58;;;;;;;9.27;66.28;98995.85;1984272;89;21135;-61
2022/05/04 00:45:05;;;;;;;32.08;13.60;;;;;;;9.15;66.37;98995.17;1996344;88;21006;-61
2022/05/04 00:48:06;;;;;;;32.48;13.68;;;;;;;9.00;66.44;98996.83;2000665;88;21025;-61
2022/05/04 00:51:06;;;;;;;33.13;14.10;;;;;;;8.90;66.28;98996.45;2005789;89;21512;-61
2022/05/04 00:54:07;;;;;;;31.17;12.65;;;;;;;8.82;66.46;99002.53;1999105;89;21018;-61
2022/05/04 00:57:08;;;;;;;33.45;14.13;;;;;;;8.75;66.42;99007.25;1995756;89;21044;-61
2022/05/04 01:00:08;;;;;;;36.53;15.58;;;;;;;8.62;66.73;99004.41;2000918;88;21021;-61
2022/05/04 01:03:08;;;;;;;34.27;16.80;;;;;;;8.43;66.58;99007.06;2003788;89;21073;-61
2022/05/04 01:06:09;;;;;;;38.25;19.02;;;;;;;8.38;66.87;99007.73;1996619;88;21544;-61
2022/05/04 01:09:09;;;;;;;34.50;16.37;;;;;;;8.34;66.89;99014.03;2000786;89;21010;-61
2022/05/04 01:12:10;;;;;;;34.03;15.25;;;;;;;8.31;67.38;99012.88;2001946;89;21076;-61
2022/05/04 01:15:11;;;;;;;31.55;14.85;;;;;;;8.11;68.37;99004.23;2002013;89;21010;-61
2022/05/04 01:18:11;;;;;;;34.80;15.03;;;;;;;7.98;67.84;99003.97;1995517;88;21102;-61
2022/05/04 01:21:12;;;;;;;32.58;14.90;;;;;;;7.93;68.11;99003.36;2000801;88;20994;-61
2022/05/04 01:24:12;;;;;;;36.40;15.28;;;;;;;7.90;68.22;99000.89;2000784;89;20985;-61
2022/05/04 01:27:13;;;;;;;35.13;14.90;;;;;;;7.83;68.22;99006.02;2003893;89;21088;-61
2022/05/04 01:30:13;;;;;;;28.65;12.37;;;;;;;7.85;68.42;99009.86;2006400;89;21574;-61
2022/05/04 01:33:14;;;;;;;30.32;13.90;;;;;;;7.81;68.42;99013.06;2006229;89;21001;-61
2022/05/04 01:36:14;;;;;;;31.30;14.55;;;;;;;7.61;69.14;99007.45;2006481;89;21079;-61
2022/05/04 01:39:15;;;;;;;34.60;15.58;;;;;;;7.58;69.45;99008.43;2006588;89;21124;-61
2022/05/04 01:42:16;;;;;;;33.80;15.23;;;;;;;7.68;69.23;99010.17;2006379;87;21013;-61
2022/05/04 01:45:17;;;;;;;36.77;16.67;;;;;;;7.74;68.54;99012.52;2006255;89;21523;-61
2022/05/04 01:48:17;;;;;;;34.85;17.62;;;;;;;7.71;68.61;99019.63;2006496;89;21016;-61
2022/05/04 01:51:18;;;;;;;33.83;16.55;;;;;;;7.67;69.16;99014.16;2006610;88;21047;-61
2022/05/04 01:54:18;;;;;;;33.15;15.20;;;;;;;7.72;69.45;99018.72;2006452;89;21499;-61
2022/05/04 01:57:19;;;;;;;32.08;14.18;;;;;;;7.66;70.46;99022.46;2006359;88;21067;-61
2022/05/04 02:00:19;;;;;;;30.23;13.98;;;;;;;7.69;70.29;99017.56;2006225;89;21761;-61
2022/05/04 02:03:19;;;;;;;38.38;19.15;;;;;;;7.77;70.32;99016.73;2005951;87;21060;-62
2022/05/04 02:06:20;;;;;;;36.55;18.85;;;;;;;7.95;70.23;99017.64;2006264;89;21070;-61
2022/05/04 02:09:20;;;;;;;34.83;16.93;;;;;;;8.06;70.09;99020.59;2006610;88;21068;-61
2022/05/04 02:12:21;;;;;;;33.67;16.07;;;;;;;8.12;69.95;99020.77;2006454;89;21060;-61
2022/05/04 02:15:21;;;;;;;36.15;17.17;;;;;;;8.15;70.26;99021.45;2006263;89;21048;-61
2022/05/04 02:18:22;;;;;;;37.53;17.85;;;;;;;8.18;70.00;99008.70;2010061;88;21045;-61
2022/05/04 02:21:22;;;;;;;37.45;18.73;;;;;;;8.23;69.95;99005.42;2018245;88;21480;-61
2022/05/04 02:24:22;;;;;;;35.17;17.35;;;;;;;8.24;69.57;99004.48;2018213;88;21088;-61
2022/05/04 02:27:23;;;;;;;37.55;16.87;;;;;;;8.35;69.76;99000.49;2018150;87;21157;-61
2022/05/04 02:30:23;;;;;;;31.07;14.30;;;;;;;8.29;69.82;98997.75;2018164;88;21073;-61
2022/05/04 02:33:24;;;;;;;29.07;13.58;;;;;;;8.41;70.16;99006.75;2018404;88;21050;-61
2022/05/04 02:39:26;;;;;;;31.12;14.33;;;;;;;8.35;70.16;99004.41;2021207;87;21081;-61
2022/05/04 02:42:27;;;;;;;30.30;14.18;;;;;;;8.32;70.37;99009.36;2018182;87;20986;-61
2022/05/04 02:45:27;;;;;;;28.62;13.08;;;;;;;8.37;70.71;99011.27;2018213;88;21561;-61
2022/05/04 02:48:28;;;;;;;29.90;13.38;;;;;;;8.37;70.63;99015.19;2018119;88;21497;-61
2022/05/04 02:51:29;;;;;;;28.62;12.47;;;;;;;8.35;70.72;99013.56;2018234;87;21058;-61
2022/05/04 02:54:29;;;;;;;28.00;12.85;;;;;;;8.42;70.44;99021.48;2018142;88;21017;-61
2022/05/04 02:57:30;;;;;;;30.65;11.90;;;;;;;8.47;70.59;99020.84;2018326;88;20993;-60
2022/05/04 03:00:30;;;;;;;29.87;13.20;;;;;;;8.52;70.66;99019.30;2018418;87;21539;-61
2022/05/04 03:03:31;;;;;;;28.98;12.40;;;;;;;8.54;70.51;99018.31;2018276;87;21512;-61
2022/05/04 03:06:31;;;;;;;29.12;12.60;;;;;;;8.55;71.00;99022.62;2018509;88;21101;-61
2022/05/04 03:09:32;;;;;;;29.55;13.25;;;;;;;8.65;70.62;99023.86;2018634;88;21005;-61
2022/05/04 03:12:33;;;;;;;29.27;13.58;;;;;;;8.57;70.86;99031.70;2018076;88;21069;-61
2022/05/04 03:15:33;;;;;;;29.50;13.03;;;;;;;8.49;71.02;99030.75;2018383;88;21124;-61
2022/05/04 03:18:33;;;;;;;27.52;12.78;;;;;;;8.51;70.83;99034.16;2012120;87;21069;-61
2022/05/04 03:21:34;;;;;;;30.40;13.98;;;;;;;8.61;70.92;99037.17;1998585;87;21634;-61
2022/05/04 03:24:34;;;;;;;30.68;13.28;;;;;;;8.69;70.72;99031.07;1998867;89;21037;-61
2022/05/04 03:27:35;;;;;;;31.23;14.60;;;;;;;8.61;71.08;99035.86;1998778;89;21084;-61
2022/05/04 03:30:35;;;;;;;27.95;13.15;;;;;;;8.63;70.92;99032.70;1998757;88;21040;-61
2022/05/04 03:33:36;;;;;;;30.72;14.45;;;;;;;8.69;71.36;99040.23;1998745;89;21009;-61
2022/05/04 03:36:37;;;;;;;31.82;14.53;;;;;;;8.72;71.01;99039.23;1998622;89;21087;-61
2022/05/04 03:39:37;;;;;;;31.68;15.50;;;;;;;8.71;71.00;99042.32;1998622;89;21125;-61
2022/05/04 03:42:38;;;;;;;31.87;15.32;;;;;;;8.83;71.26;99049.56;1998637;89;21028;-61
2022/05/04 03:45:38;;;;;;;30.92;14.78;;;;;;;8.78;71.15;99046.80;1998765;88;21014;-61
2022/05/04 03:48:39;;;;;;;31.75;14.03;;;;;;;8.78;71.08;99050.25;1998645;89;21132;-61
2022/05/04 03:51:39;;;;;;;29.07;12.88;;;;;;;8.84;71.35;99051.23;1998661;87;21017;-61
2022/05/04 03:54:40;;;;;;;29.70;13.50;;;;;;;8.92;71.30;99066.56;1998619;89;21057;-61
2022/05/04 03:57:40;;;;;;;30.80;14.05;;;;;;;9.08;71.22;99052.23;1998603;89;21188;-61
2022/05/04 04:00:41;;;;;;;30.40;14.83;;;;;;;9.21;71.07;99048.97;1998638;89;21070;-61
2022/05/04 04:03:41;;;;;;;33.28;14.47;;;;;;;9.34;71.54;99050.88;1998510;89;21164;-61
2022/05/04 04:06:42;;;;;;;34.45;14.60;;;;;;;9.52;71.31;99055.63;1998642;89;21025;-61
2022/05/04 04:09:42;;;;;;;34.50;15.75;;;;;;;9.75;71.24;99056.63;1998590;89;21111;-61
2022/05/04 04:12:43;;;;;;;28.40;14.00;;;;;;;9.82;71.27;99051.43;1998322;89;21113;-61
2022/05/04 04:15:44;;;;;;;30.05;14.35;;;;;;;9.66;70.99;99060.11;1998702;89;21596;-61
2022/05/04 04:18:44;;;;;;;27.10;12.65;;;;;;;9.72;71.47;99061.55;1998656;88;21018;-61
2022/05/04 04:24:47;;;;;;;27.90;12.35;;;;;;;10.12;70.66;99064.63;1977628;89;21053;-61
2022/05/04 04:27:47;;;;;;;27.27;12.85;;;;;;;10.26;70.38;99066.48;1998877;89;21093;-61
2022/05/04 04:30:48;;;;;;;27.22;12.98;;;;;;;10.45;70.75;99060.25;1998542;89;21013;-61
2022/05/04 04:33:48;;;;;;;28.02;13.00;;;;;;;10.64;71.09;99060.03;1998441;89;21108;-61
2022/05/04 04:36:49;;;;;;;31.27;14.13;;;;;;;10.76;70.12;99064.58;1998540;87;21097;-61
2022/05/04 04:39:49;;;;;;;29.20;13.72;;;;;;;10.73;70.01;99066.91;1998477;89;21592;-61
2022/05/04 04:42:50;;;;;;;31.50;13.70;;;;;;;10.81;70.35;99074.33;1998563;89;21076;-61
2022/05/04 04:45:50;;;;;;;27.90;14.20;;;;;;;10.78;70.42;99066.64;1998702;89;21061;-61
2022/05/04 04:48:51;;;;;;;28.98;14.10;;;;;;;10.84;70.66;99078.55;1998413;89;21045;-61
2022/05/04 04:51:52;;;;;;;26.87;12.40;;;;;;;10.98;70.58;99075.14;1998558;89;21073;-61
2022/05/04 04:54:52;;;;;;;26.25;12.65;;;;;;;11.07;69.67;99071.95;1998572;87;21823;-61
2022/05/04 04:57:53;;;;;;;26.87;13.28;;;;;;;11.08;69.25;99080.22;1998711;89;21124;-61
2022/05/04 05:00:53;;;;;;;28.02;13.13;;;;;;;11.11;69.60;99082.66;1998712;89;21036;-61
2022/05/04 05:03:54;;;;;;;28.07;13.30;;;;;;;11.13;69.67;99085.19;1998564;88;21081;-61
2022/05/04 05:06:54;;;;;;;28.85;14.13;;;;;;;11.33;69.98;99084.84;1998614;87;21005;-61
2022/05/04 05:09:55;;;;;;;29.70;13.48;;;;;;;11.72;69.76;99086.45;1998380;89;21069;-61
2022/05/04 05:12:55;;;;;;;28.92;13.05;;;;;;;12.27;68.88;99092.72;1998359;89;21521;-61
2022/05/04 05:18:58;;;;;;;25.35;11.88;;;;;;;13.10;67.33;99090.38;1984816;87;21097;-61
2022/05/04 05:21:59;;;;;;;27.05;12.43;;;;;;;13.45;65.98;99089.34;2023669;87;20998;-61
2022/05/04 05:25:00;;;;;;;27.22;12.80;;;;;;;13.72;65.58;99092.34;2023256;87;21073;-61
2022/05/04 05:28:00;;;;;;;28.67;12.30;;;;;;;13.95;65.41;99103.91;2018258;87;20996;-61
2022/05/04 05:31:01;;;;;;;27.58;12.73;;;;;;;13.88;64.14;99100.02;2018063;88;21146;-61
2022/05/04 05:34:01;;;;;;;28.83;13.40;;;;;;;13.86;64.10;99100.58;2018224;88;21504;-61
2022/05/04 05:37:02;;;;;;;27.37;13.13;;;;;;;13.89;64.60;99103.00;2018156;86;21506;-61
2022/05/04 05:40:02;;;;;;;29.12;13.00;;;;;;;13.99;63.90;99104.06;2018279;88;20973;-61
2022/05/04 05:43:03;;;;;;;27.77;12.45;;;;;;;14.08;64.05;99099.92;2018324;88;21033;-61
2022/05/04 05:46:03;;;;;;;27.80;13.03;;;;;;;14.16;62.96;99104.16;2018290;87;21032;-61
2022/05/04 05:49:04;;;;;;;27.82;10.90;;;;;;;14.31;62.88;99105.33;2018241;88;21010;-61
2022/05/04 05:52:04;;;;;;;28.27;11.90;;;;;;;14.45;61.04;99105.66;2018091;88;21130;-61
2022/05/04 05:55:04;;;;;;;24.10;10.53;;;;;;;14.61;61.79;99104.92;2018240;87;21528;-61
2022/05/04 05:58:06;;;;;;;25.88;11.10;;;;;;;14.97;61.85;99103.64;2017825;87;21062;-61
2022/05/04 06:01:07;;;;;;;26.07;11.15;;;;;;;15.24;61.14;99097.61;2018126;88;21513;-61
2022/05/04 06:04:07;;;;;;;25.80;11.25;;;;;;;15.46;59.76;99093.33;2018249;88;21009;-61
2022/05/04 06:07:08;;;;;;;29.02;11.50;;;;;;;15.53;60.19;99098.96;2018198;87;21128;-61
2022/05/04 06:10:08;;;;;;;26.25;11.75;;;;;;;15.54;59.44;99101.52;2018478;88;21009;-61
2022/05/04 06:13:09;;;;;;;26.87;10.13;;;;;;;15.67;59.33;99102.70;2017783;88;21064;-61
2022/05/04 06:16:09;;;;;;;23.10;10.08;;;;;;;15.91;60.03;99103.94;2018209;88;21564;-61
2022/05/04 06:19:10;;;;;;;24.18;8.53;;;;;;;16.34;59.56;99104.98;2013154;88;21061;-61
2022/05/04 06:22:10;;;;;;;23.10;7.95;;;;;;;16.75;58.32;99108.72;1998471;89;21092;-61
2022/05/04 06:25:11;;;;;;;23.77;7.17;;;;;;;17.04;56.82;99107.29;1998640;89;21069;-61
2022/05/04 06:28:11;;;;;;;23.90;7.17;;;;;;;17.19;56.28;99111.81;1998410;89;20993;-61
2022/05/04 06:34:14;;;;;;;21.15;7.12;;;;;;;17.73;55.57;99105.42;1979736;89;21152;-60
2022/05/04 06:37:15;;;;;;;20.92;6.95;;;;;;;18.08;54.84;99101.53;2000917;89;21040;-61
2022/05/04 06:40:15;;;;;;;19.00;6.53;;;;;;;18.31;53.99;99107.95;1998406;89;21058;-61
2022/05/04 06:43:16;;;;;;;20.27;7.15;;;;;;;18.52;53.19;99110.52;1998487;89;21552;-61
2022/05/04 06:46:16;;;;;;;17.02;5.58;;;;;;;18.77;51.60;99105.65;1998850;89;21110;-61
2022/05/04 06:49:17;;;;;;;17.25;5.53;;;;;;;18.81;50.94;99105.73;1998622;89;21033;-61
2022/05/04 06:52:17;;;;;;;18.05;5.67;;;;;;;18.93;50.51;99105.12;1998445;89;21141;-61
2022/05/04 06:55:18;;;;;;;23.75;7.03;;;;;;;18.97;50.55;99103.86;1998516;89;21045;-61
2022/05/04 06:58:18;;;;;;;20.08;6.45;;;;;;;18.91;50.10;99098.62;1998457;89;21056;-61
2022/05/04 07:01:19;;;;;;;18.32;6.15;;;;;;;18.79;49.53;99108.52;1998248;89;21096;-61
2022/05/04 07:04:20;;;;;;;16.30;5.83;;;;;;;18.71;49.42;99105.71;1998502;89;21069;-61
2022/05/04 07:07:21;;;;;;;17.37;5.85;;;;;;;18.87;49.21;99111.83;1998657;89;21049;-61
2022/05/04 07:10:21;;;;;;;30.27;11.95;;;;;;;19.21;48.96;99110.91;1998395;89;21046;-61
2022/05/04 07:13:23;;;;;;;15.70;4.83;;;;;;;19.70;48.65;99107.30;1998486;89;21543;-61
2022/05/04 07:16:24;;;;;;;21.20;5.33;;;;;;;20.19;47.14;99111.11;1998466;87;21002;-61
2022/05/04 07:19:24;;;;;;;18.50;5.28;;;;;;;20.65;45.83;99114.60;1999983;87;21060;-61
2022/05/04 07:22:25;;;;;;;15.55;4.97;;;;;;;20.92;45.97;99119.06;2003942;88;21075;-61
2022/05/04 07:25:26;;;;;;;15.25;5.35;;;;;;;21.14;44.42;99116.91;2003768;89;21033;-61
2022/05/04 07:28:26;;;;;;;15.85;4.62;;;;;;;21.36;43.68;99124.89;1995538;88;21125;-61
2022/05/04 07:31:27;;;;;;;16.67;5.05;;;;;;;21.41;41.29;99120.45;2000556;89;21045;-61
2022/05/04 07:34:27;;;;;;;13.98;4.20;;;;;;;21.13;42.42;99118.39;2000826;89;21093;-61
2022/05/04 07:37:28;;;;;;;11.30;3.42;;;;;;;21.06;42.88;99122.16;2000285;89;21060;-61
2022/05/04 07:43:32;;;;;;;13.62;3.60;;;;;;;21.23;41.79;99121.33;1982197;89;21535;-61
2022/05/04 07:46:33;;;;;;;12.07;3.58;;;;;;;21.28;40.81;99119.02;2001266;89;21053;-61
2022/05/04 07:49:34;;;;;;;15.08;4.15;;;;;;;21.41;39.50;99116.45;2000981;89;21072;-61
2022/05/04 07:52:35;;;;;;;15.05;4.05;;;;;;;21.29;39.58;99121.17;2000851;88;21065;-61
2022/05/04 07:55:36;;;;;;;16.10;3.85;;;;;;;21.35;38.43;99116.58;2000935;88;21141;-61
2022/05/04 07:58:37;;;;;;;17.65;4.70;;;;;;;21.57;37.85;99117.08;2000861;89;21040;-61
2022/05/04 08:04:40;;;;;;;14.40;3.70;;;;;;;21.93;39.36;99115.61;1982414;89;21029;-61
2022/05/04 08:07:40;;;;;;;12.00;3.40;;;;;;;22.08;38.70;99110.01;2001240;89;21050;-61
2022/05/04 08:10:41;;;;;;;12.25;3.42;;;;;;;22.39;37.92;99119.33;2001218;89;21054;-61
2022/05/04 08:13:41;;;;;;;11.43;3.17;;;;;;;22.21;36.19;99121.58;2000942;89;21060;-61
2022/05/04 08:16:41;;;;;;;12.43;3.20;;;;;;;22.53;36.02;99125.86;2001066;89;21664;-61
2022/05/04 08:19:42;;;;;;;13.23;3.43;;;;;;;23.01;35.53;99129.62;2002347;88;21572;-62
2022/05/04 08:22:43;;;;;;;9.97;3.23;;;;;;;23.21;33.90;99127.48;1998610;89;21489;-60
2022/05/04 08:25:45;;;;;;;11.70;3.17;;;;;;;23.42;35.84;99119.42;1998646;88;21132;-59
2022/05/04 08:28:46;;;;;;;11.90;3.30;;;;;;;23.35;34.10;99127.31;1997892;89;21057;-59
2022/05/04 08:31:46;;;;;;;13.90;3.50;;;;;;;23.25;35.29;99119.45;1996006;89;21560;-59
2022/05/04 08:34:47;;;;;;;13.07;3.20;;;;;;;23.41;34.05;99128.48;2003511;88;21048;-59
2022/05/04 08:37:48;;;;;;;15.47;3.77;;;;;;;23.49;33.11;99127.97;2000746;89;21010;-59
2022/05/04 08:40:48;;;;;;;12.93;3.23;;;;;;;23.76;34.73;99127.73;2001552;89;21085;-59
2022/05/04 08:43:49;;;;;;;11.83;3.87;;;;;;;24.42;34.83;99126.17;2000583;89;21535;-59
2022/05/04 08:46:49;;;;;;;13.67;3.43;;;;;;;24.26;33.75;99125.75;2003278;89;21136;-59
2022/05/04 08:49:50;;;;;;;13.10;3.70;;;;;;;24.23;33.37;99125.59;2003558;89;20993;-60
2022/05/04 08:52:53;;;;;;;16.67;3.80;;;;;;;24.46;32.80;99132.86;1998730;89;21062;-60
2022/05/04 08:55:53;;;;;;;13.05;3.80;;;;;;;24.31;33.10;99132.75;1978168;89;21025;-59
2022/05/04 08:58:53;;;;;;;12.03;4.40;;;;;;;24.16;33.19;99129.98;2001138;89;21033;-59
2022/05/04 09:01:54;;;;;;;15.47;4.07;;;;;;;24.01;32.50;99130.70;2001058;88;21112;-59
2022/05/04 09:04:54;;;;;;;13.63;4.30;;;;;;;23.94;32.85;99128.90;2001065;89;21018;-59
2022/05/04 09:07:54;;;;;;;13.00;4.07;;;;;;;23.65;31.63;99130.28;2005237;89;21544;-60
2022/05/04 09:10:55;;;;;;;14.03;4.43;;;;;;;23.30;32.79;99127.82;2000907;88;21061;-59
2022/05/04 09:13:55;;;;;;;9.07;3.33;;;;;;;23.14;33.10;99128.67;2001436;88;21029;-60
2022/05/04 09:16:56;;;;;;;15.47;4.17;;;;;;;23.14;33.27;99127.81;2000708;88;21117;-59
2022/05/04 09:22:59;;;;;;;12.65;3.83;;;;;;;23.22;33.28;99129.67;1983433;89;21121;-60
2022/05/04 09:26:00;;;;;;;14.13;3.80;;;;;;;23.40;33.31;99121.45;1998046;88;21029;-60
2022/05/04 09:29:00;;;;;;;14.70;4.17;;;;;;;23.36;31.45;99123.64;2005147;88;21033;-60
2022/05/04 09:32:00;;;;;;;14.23;3.90;;;;;;;23.25;31.80;99120.79;2003346;89;20994;-60
2022/05/04 09:35:01;;;;;;;15.40;4.27;;;;;;;23.17;31.99;99124.80;2000624;89;21592;-59
2022/05/04 09:47:09;;;;;;;13.78;3.90;;;;;;;22.68;32.55;99126.08;1983425;89;21085;-59
2022/05/04 09:50:10;;;;;;;14.60;4.10;;;;;;;22.64;32.05;99124.22;2008222;89;21082;-60
2022/05/04 09:53:11;;;;;;;17.03;4.63;;;;;;;22.56;31.71;99117.54;1997678;89;21537;-59
2022/05/04 09:56:11;;;;;;;16.97;5.08;;;;;;;22.51;32.76;99122.02;1999602;89;20998;-59
2022/05/04 09:59:12;;;;;;;17.37;4.43;;;;;;;22.13;32.28;99117.02;2000707;88;21048;-59
2022/05/04 10:02:13;;;;;;;18.23;4.80;;;;;;;22.03;33.53;99121.66;2003363;89;20985;-60
2022/05/04 10:05:14;;;;;;;15.80;4.17;;;;;;;22.24;33.73;99117.72;1997614;87;21092;-60
2022/05/04 10:08:14;;;;;;;16.97;4.37;;;;;;;22.51;33.74;99122.02;2003286;89;20993;-59
2022/05/04 10:11:15;;;;;;;15.93;4.40;;;;;;;23.33;34.21;99122.61;2000633;88;21029;-59
2022/05/04 10:14:16;;;;;;;13.30;4.27;;;;;;;23.62;33.24;99115.39;2001186;89;21060;-59
2022/05/04 10:17:18;;;;;;;18.07;4.58;;;;;;;23.73;31.02;99118.20;2000749;89;21074;-59
2022/05/04 10:20:18;;;;;;;15.53;4.25;;;;;;;23.46;32.78;99118.08;1996639;87;21560;-60
2022/05/04 10:23:19;;;;;;;16.20;4.17;;;;;;;23.50;33.24;99112.73;1987119;88;21077;-60
2022/05/04 10:26:19;;;;;;;11.80;3.77;;;;;;;23.56;32.05;99112.55;2001067;88;21049;-60
2022/05/04 10:32:23;;;;;;;15.60;4.30;;;;;;;23.47;31.68;99107.72;1985778;89;21041;-59
2022/05/04 10:35:24;;;;;;;15.93;4.08;;;;;;;23.58;32.57;99107.37;2006353;89;21048;-60
2022/05/04 10:38:24;;;;;;;13.73;3.83;;;;;;;23.68;32.70;99104.50;2006441;88;21017;-60
2022/05/04 10:41:25;;;;;;;13.80;4.20;;;;;;;23.83;32.17;99100.11;2006448;89;21755;-60
2022/05/04 10:44:26;;;;;;;15.10;4.00;;;;;;;23.91;31.05;99095.77;2006702;89;20993;-60
2022/05/04 10:47:28;;;;;;;13.63;4.07;;;;;;;23.46;30.32;99104.70;2006830;89;20997;-59
2022/05/04 10:50:28;;;;;;;18.05;4.08;;;;;;;23.36;30.26;99102.23;2006217;89;21092;-60
2022/05/04 10:53:29;;;;;;;13.30;4.03;;;;;;;23.47;30.35;99095.67;2006420;89;20970;-60
2022/05/04 10:56:29;;;;;;;16.83;4.23;;;;;;;23.27;30.42;99096.02;2006448;89;21552;-60
2022/05/04 10:59:30;;;;;;;16.10;4.00;;;;;;;23.78;32.36;99098.96;2006441;89;21024;-60
2022/05/04 11:02:30;;;;;;;19.27;4.70;;;;;;;24.75;32.49;99096.51;2006409;89;21021;-60
2022/05/04 11:05:31;;;;;;;14.47;4.00;;;;;;;25.50;31.81;99093.53;2006384;89;21017;-60
2022/05/04 11:08:31;;;;;;;16.03;3.67;;;;;;;26.03;30.86;99089.44;2006585;89;21487;-60
2022/05/04 11:11:32;;;;;;;16.67;3.57;;;;;;;26.33;29.74;99085.36;2006528;89;21531;-60
2022/05/04 11:14:34;;;;;;;14.80;4.00;;;;;;;26.78;29.48;99086.91;2006428;89;21026;-60
2022/05/04 11:17:35;;;;;;;12.13;3.60;;;;;;;26.64;28.92;99079.70;2006200;89;21092;-60
2022/05/04 11:20:36;;;;;;;15.23;3.90;;;;;;;26.77;29.02;99081.72;2004255;89;21621;-60
2022/05/04 11:23:36;;;;;;;11.80;3.70;;;;;;;26.83;28.68;99068.83;1998879;89;21026;-60
2022/05/04 11:26:37;;;;;;;16.57;4.20;;;;;;;26.31;27.02;99080.17;1999063;89;21053;-60
2022/05/04 11:29:38;;;;;;;15.70;4.37;;;;;;;25.63;27.19;99090.21;1998885;89;20989;-60
2022/05/04 11:32:38;;;;;;;16.90;4.53;;;;;;;24.85;27.50;99088.53;1998662;89;21106;-60
2022/05/04 11:35:39;;;;;;;15.10;4.23;;;;;;;24.62;29.19;99085.03;1998499;89;21516;-59
2022/05/04 11:38:39;;;;;;;14.53;4.60;;;;;;;24.62;29.19;99085.03;1998826;89;21029;-59
2022/05/04 11:41:40;;;;;;;10.53;3.90;;;;;;;24.54;29.53;99092.09;1998811;89;21565;-60
2022/05/04 11:44:46;;;;;;;19.40;4.20;;;;;;;24.61;30.15;99088.72;1998577;89;21121;-60
2022/05/04 11:47:43;;;;;;;12.85;4.17;;;;;;;24.88;28.87;99090.03;1976065;89;21072;-60
2022/05/04 11:50:44;;;;;;;13.97;3.67;;;;;;;24.58;29.01;99085.84;1998850;87;21512;-59
2022/05/04 11:53:45;;;;;;;14.98;3.90;;;;;;;24.21;28.50;99090.11;1998805;89;21597;-60
2022/05/04 11:56:46;;;;;;;15.63;4.43;;;;;;;23.92;29.11;99083.54;1998918;89;21069;-60
2022/05/04 11:59:46;;;;;;;14.43;4.10;;;;;;;23.85;29.81;99081.19;1998891;89;21061;-60
2022/05/04 12:02:48;;;;;;;13.33;3.90;;;;;;;24.10;29.10;99075.24;1998544;89;21125;-59
2022/05/04 12:05:49;;;;;;;16.73;4.30;;;;;;;24.47;29.83;99079.06;1998627;89;21599;-60
2022/05/04 12:08:49;;;;;;;17.17;4.57;;;;;;;24.79;29.16;99074.51;1998974;89;21021;-60
2022/05/04 12:11:50;;;;;;;12.73;4.17;;;;;;;24.65;28.42;99079.31;1998937;87;21073;-60
2022/05/04 12:14:50;;;;;;;11.83;3.87;;;;;;;24.12;27.26;99072.38;1998844;87;21014;-60
2022/05/04 12:17:51;;;;;;;12.53;3.90;;;;;;;23.67;29.45;99075.53;1998819;88;21611;-60
2022/05/04 12:20:51;;;;;;;11.37;3.70;;;;;;;23.67;29.09;99074.71;2000272;87;21543;-60
2022/05/04 12:23:51;;;;;;;15.87;4.57;;;;;;;23.71;29.85;99072.02;2004135;88;21069;-60
2022/05/04 12:26:55;;;;;;;12.80;4.23;;;;;;;23.25;28.77;99068.61;2003943;89;21056;-60
2022/05/04 12:36:00;;;;;;;15.28;4.00;;;;;;;23.41;30.19;99070.42;1982032;89;21025;-60
2022/05/04 12:39:00;;;;;;;10.43;3.73;;;;;;;23.39;28.55;99067.58;2001069;87;20998;-60
2022/05/04 12:42:01;;;;;;;15.70;3.77;;;;;;;24.00;29.35;99055.87;2001005;89;21101;-60
2022/05/04 12:45:01;;;;;;;15.23;4.17;;;;;;;24.06;29.01;99052.48;2000783;89;21080;-60
2022/05/04 12:48:03;;;;;;;13.00;3.87;;;;;;;24.54;28.54;99037.12;2000703;89;21555;-60
2022/05/04 12:51:04;;;;;;;13.00;3.90;;;;;;;24.59;28.79;99042.46;2001199;89;21021;-60
2022/05/04 12:54:04;;;;;;;16.33;4.10;;;;;;;25.13;29.33;99049.08;2001250;89;21005;-60
2022/05/04 12:57:06;;;;;;;9.03;3.90;;;;;;;25.75;28.29;99038.53;2001083;89;21069;-60
2022/05/04 13:00:07;;;;;;;12.43;4.00;;;;;;;25.39;26.89;99035.77;1982000;89;21040;-60
2022/05/04 13:03:11;;;;;;;12.60;4.10;;;;;;;25.12;28.75;99040.70;2000993;88;21516;-60
2022/05/04 13:06:10;;;;;;;16.80;4.45;;;;;;;25.13;29.04;99045.06;1981987;89;21066;-60
2022/05/04 13:09:10;;;;;;;15.07;4.17;;;;;;;25.82;28.88;99038.63;2000996;89;21117;-60
2022/05/04 13:12:11;;;;;;;13.70;3.93;;;;;;;25.72;27.57;99039.43;2001022;89;21539;-60
2022/05/04 13:15:12;;;;;;;15.47;4.50;;;;;;;25.43;27.73;99041.10;2001039;89;20997;-60
2022/05/04 13:18:12;;;;;;;12.83;4.10;;;;;;;25.34;27.00;99039.51;2001137;88;21057;-60
2022/05/04 13:21:13;;;;;;;12.17;3.80;;;;;;;25.63;28.43;99037.84;2000994;88;21124;-60
2022/05/04 13:24:13;;;;;;;15.73;4.43;;;;;;;26.33;26.26;99033.76;2000827;89;21219;-60
2022/05/04 13:27:14;;;;;;;15.60;4.50;;;;;;;26.06;26.08;99025.91;2000647;89;21108;-60
2022/05/04 13:30:14;;;;;;;15.17;4.17;;;;;;;26.39;25.82;99024.95;2001033;89;21073;-60
2022/05/04 13:33:15;;;;;;;14.10;4.40;;;;;;;26.40;26.91;99015.02;2001005;89;21515;-60
2022/05/04 13:36:15;;;;;;;12.87;4.30;;;;;;;26.66;26.08;99011.73;2000914;89;21033;-60
2022/05/04 13:39:16;;;;;;;15.48;4.78;;;;;;;26.68;27.46;99008.85;2000849;89;21037;-60
2022/05/04 13:42:17;;;;;;;11.87;3.83;;;;;;;26.21;24.98;99015.95;2001084;87;21122;-60
2022/05/04 13:45:17;;;;;;;11.50;3.90;;;;;;;25.64;25.00;99018.86;2000903;88;21057;-60
2022/05/04 13:48:18;;;;;;;12.40;4.00;;;;;;;24.53;26.30;99019.88;2001014;89;21126;-60
2022/05/04 13:54:21;;;;;;;12.40;4.30;;;;;;;24.06;26.91;99017.66;1982161;89;21041;-60
2022/05/04 13:57:22;;;;;;;14.50;3.98;;;;;;;23.90;27.47;99019.09;2000739;89;21177;-60
2022/05/04 14:00:22;;;;;;;15.30;4.40;;;;;;;24.00;27.96;99018.37;2001125;89;21028;-60
2022/05/04 14:03:23;;;;;;;12.80;3.90;;;;;;;23.92;27.80;99011.70;2001136;89;21051;-60
2022/05/04 14:06:23;;;;;;;10.53;3.80;;;;;;;23.92;27.98;99008.55;2001127;89;21044;-60
2022/05/04 14:09:24;;;;;;;12.33;3.63;;;;;;;23.97;28.15;99008.83;2001005;88;21053;-60
2022/05/04 14:12:25;;;;;;;12.43;3.70;;;;;;;23.63;28.26;99007.79;2000984;89;20997;-60
2022/05/04 14:15:25;;;;;;;13.23;3.60;;;;;;;23.61;28.87;99005.28;2000895;89;21104;-60
2022/05/04 14:18:26;;;;;;;16.23;4.70;;;;;;;23.58;28.41;99007.49;2000962;88;21045;-60
2022/05/04 14:21:26;;;;;;;11.07;3.87;;;;;;;23.37;28.44;99009.39;2002486;88;21021;-60
2022/05/04 14:27:53;;;;;;;14.30;3.90;;;;;;;23.31;28.55;99003.70;2000365;89;21548;-60
2022/05/04 14:30:54;;;;;;;10.08;3.37;;;;;;;23.53;27.73;98999.47;2000336;89;21120;-60
2022/05/04 14:33:54;;;;;;;15.13;3.90;;;;;;;23.53;28.62;99000.81;2000964;89;21022;-60
2022/05/04 14:36:55;;;;;;;12.67;4.20;;;;;;;23.23;28.93;99001.56;2002182;89;21690;-60
2022/05/04 14:39:56;;;;;;;18.17;5.00;;;;;;;23.09;28.83;99009.77;1997003;89;21001;-60
2022/05/04 14:42:58;;;;;;;10.95;3.67;;;;;;;23.07;29.02;99009.08;1983716;89;21579;-60
2022/05/04 14:45:59;;;;;;;15.67;4.00;;;;;;;23.05;29.29;99010.59;2002233;89;21073;-60